createdAt,value
2023-04-18T00:01:06.011Z,5.81
2023-04-18T00:31:06.071Z,5.88
2023-04-18T01:01:06.041Z,5.56
2023-04-18T01:31:06.053Z,5.38
2023-04-18T02:01:06.053Z,5.44
2023-04-18T02:31:06.033Z,5.44
2023-04-18T03:01:06.068Z,5.63
2023-04-18T03:31:06.056Z,6
2023-04-18T04:01:06.020Z,6.31
2023-04-18T04:31:06.041Z,6.38
2023-04-18T05:01:06.051Z,7.44
2023-04-18T05:31:06.074Z,7.63
2023-04-18T06:01:06.052Z,8.31
2023-04-18T06:31:06.075Z,8.5
2023-04-18T07:01:06.090Z,10.56
2023-04-18T07:31:06.101Z,11.88
2023-04-18T08:01:06.084Z,11.88
2023-04-18T08:31:06.085Z,13
2023-04-18T09:01:06.127Z,14.63
2023-04-18T09:31:06.128Z,13.75
2023-04-18T10:01:06.127Z,13.31
2023-04-18T10:31:06.108Z,14.5
2023-04-18T11:01:06.116Z,14
2023-04-18T11:31:06.104Z,14.44
2023-04-18T12:01:06.111Z,15.06
2023-04-18T12:31:06.121Z,16.63
2023-04-18T13:01:06.121Z,15.5
2023-04-18T13:31:06.118Z,13.88
2023-04-18T14:01:06.204Z,13.75
2023-04-18T14:31:06.205Z,13.38
2023-04-18T15:01:06.139Z,13.5
2023-04-18T15:31:06.165Z,13.88
2023-04-18T16:01:06.201Z,12.5
2023-04-18T16:31:06.193Z,12
2023-04-18T17:01:06.175Z,12.13
2023-04-18T17:31:06.169Z,10.75
2023-04-18T18:01:06.192Z,10.06
2023-04-18T18:31:06.175Z,9.94
2023-04-18T19:01:06.176Z,9.88
2023-04-18T19:42:06.257Z,9.69
2023-04-18T20:12:06.120Z,9.63
2023-04-18T20:42:06.119Z,9.44
2023-04-18T21:12:06.129Z,9.38
2023-04-18T21:42:06.151Z,8.94
2023-04-18T22:12:06.147Z,8.19
2023-04-18T22:42:06.149Z,7.81
2023-04-18T23:12:06.173Z,7.63
2023-04-18T23:42:06.178Z,7.69
